createdAt,value
2023-10-19T00:00:26.612Z,4.98
2023-10-19T00:02:57.311Z,5.15
2023-10-19T00:05:31.040Z,5.18
2023-10-19T00:08:01.282Z,5.70
2023-10-19T00:10:36.679Z,6.68
2023-10-19T00:13:06.504Z,5.63
2023-10-19T00:15:41.929Z,4.32
2023-10-19T00:18:32.709Z,5.70
2023-10-19T00:21:12.329Z,4.15
2023-10-19T00:23:41.240Z,5.85
2023-10-19T00:26:16.925Z,4.80
2023-10-19T00:28:54.878Z,4.65
2023-10-19T00:31:25.801Z,4.90
2023-10-19T00:33:59.632Z,5.40
2023-10-19T00:36:40.373Z,6.15
2023-10-19T00:39:16.224Z,6.13
2023-10-19T00:41:47.054Z,5.30
2023-10-19T00:44:23.959Z,4.47
2023-10-19T00:47:04.067Z,4.47
2023-10-19T00:49:39.767Z,5.38
2023-10-19T00:52:20.644Z,6.93
2023-10-19T00:55:00.359Z,6.65
2023-10-19T00:57:37.507Z,6.00
2023-10-19T01:00:22.969Z,5.15
2023-10-19T01:03:01.730Z,6.07
2023-10-19T01:05:41.175Z,7.13
2023-10-19T01:08:24.917Z,5.90
2023-10-19T01:11:00.898Z,4.97
2023-10-19T01:16:30.080Z,6.32
2023-10-19T01:19:00.885Z,7.20
2023-10-19T01:21:42.497Z,6.78
2023-10-19T01:24:20.156Z,4.75
2023-10-19T01:26:52.689Z,6.03
2023-10-19T01:29:28.060Z,5.68
2023-10-19T01:32:09.944Z,7.43
2023-10-19T01:34:41.068Z,6.78
2023-10-19T01:37:09.194Z,5.20
2023-10-19T01:39:54.140Z,4.75
2023-10-19T01:42:22.264Z,7.03
2023-10-19T01:44:55.616Z,4.80
2023-10-19T01:47:41.894Z,4.37
2023-10-19T01:50:21.370Z,6.03
2023-10-19T01:52:50.278Z,7.63
2023-10-19T01:55:24.428Z,6.28
2023-10-19T01:57:55.127Z,4.97
2023-10-19T02:00:24.450Z,6.25
2023-10-19T02:03:02.030Z,6.05
2023-10-19T02:05:34.872Z,10.40
2023-10-19T02:08:08.582Z,8.68
2023-10-19T02:13:17.113Z,6.20
2023-10-19T02:15:47.138Z,5.80
2023-10-19T02:18:18.742Z,7.80
2023-10-19T02:20:49.718Z,5.28
2023-10-19T02:23:22.473Z,5.07
2023-10-19T02:25:54.840Z,5.85
2023-10-19T02:28:32.674Z,10.55
2023-10-19T02:31:12.465Z,7.93
2023-10-19T02:33:52.836Z,5.82
2023-10-19T02:36:31.113Z,7.20
2023-10-19T02:39:09.006Z,8.23
2023-10-19T02:41:43.281Z,8.20
2023-10-19T02:44:21.239Z,9.55
2023-10-19T02:46:52.037Z,7.15
2023-10-19T02:49:24.266Z,6.47
2023-10-19T02:51:53.853Z,6.53
2023-10-19T02:54:29.419Z,6.78
2023-10-19T02:57:01.711Z,5.88
2023-10-19T02:59:33.514Z,9.35
2023-10-19T03:02:08.357Z,8.20
2023-10-19T03:04:39.985Z,7.78
2023-10-19T03:07:08.773Z,7.95
2023-10-19T03:09:50.729Z,6.90
2023-10-19T03:12:29.243Z,6.43
2023-10-19T03:15:06.768Z,7.55
2023-10-19T03:17:35.045Z,8.00
2023-10-19T03:20:11.984Z,6.28
2023-10-19T03:22:40.375Z,8.43
2023-10-19T03:25:25.958Z,6.30
2023-10-19T03:27:59.698Z,8.02
2023-10-19T03:30:31.761Z,6.55
2023-10-19T03:33:03.522Z,6.32
2023-10-19T03:35:38.862Z,9.60
2023-10-19T03:38:15.974Z,7.45
2023-10-19T03:40:57.485Z,6.38
2023-10-19T03:43:31.349Z,5.20
2023-10-19T03:46:15.711Z,6.93
2023-10-19T03:48:47.808Z,5.18
2023-10-19T03:51:18.861Z,6.13
2023-10-19T03:53:56.166Z,8.18
2023-10-19T03:56:26.875Z,5.95
2023-10-19T03:59:04.555Z,8.27
2023-10-19T04:01:35.827Z,5.93
2023-10-19T04:04:07.198Z,4.78
2023-10-19T04:06:40.550Z,4.68
2023-10-19T04:09:16.583Z,7.15
2023-10-19T04:11:52.457Z,8.10
2023-10-19T04:14:26.418Z,6.65
2023-10-19T04:17:07.490Z,5.28
2023-10-19T04:19:39.270Z,6.75
2023-10-19T04:22:12.654Z,8.55
2023-10-19T04:24:43.264Z,9.20
2023-10-19T04:27:14.364Z,9.52
2023-10-19T04:29:50.813Z,7.32
2023-10-19T04:32:27.638Z,7.07
2023-10-19T04:35:10.244Z,6.30
2023-10-19T04:37:43.987Z,4.13
2023-10-19T04:40:15.812Z,5.55
2023-10-19T04:42:48.806Z,6.03
2023-10-19T04:45:22.594Z,6.50
2023-10-19T04:48:10.433Z,4.43
2023-10-19T04:50:41.294Z,8.57
2023-10-19T04:53:16.801Z,5.60
2023-10-19T04:55:51.855Z,6.03
2023-10-19T04:58:24.252Z,8.45
2023-10-19T05:01:00.766Z,6.57
2023-10-19T05:03:31.653Z,6.95
2023-10-19T05:06:05.933Z,6.78
2023-10-19T05:08:37.928Z,7.30
2023-10-19T05:11:10.806Z,5.53
2023-10-19T05:13:43.858Z,4.38
2023-10-19T05:16:17.479Z,4.30
2023-10-19T05:18:51.008Z,6.40
2023-10-19T05:21:22.996Z,5.80
2023-10-19T05:23:54.379Z,4.22
2023-10-19T05:26:25.061Z,5.65
2023-10-19T05:28:56.162Z,5.70
2023-10-19T05:31:32.686Z,5.30
2023-10-19T05:34:03.847Z,5.35
2023-10-19T05:36:50.376Z,6.47
2023-10-19T05:39:22.263Z,4.60
2023-10-19T05:42:03.760Z,4.60
2023-10-19T05:44:34.721Z,3.92
2023-10-19T05:47:24.877Z,3.22
2023-10-19T05:49:58.401Z,3.50
2023-10-19T05:52:29.109Z,3.85
2023-10-19T05:55:01.416Z,3.35
2023-10-19T05:57:37.117Z,4.70
2023-10-19T06:00:13.817Z,3.42
2023-10-19T06:02:50.355Z,4.20
2023-10-19T06:05:36.345Z,3.25
2023-10-19T06:08:15.447Z,3.72
2023-10-19T06:10:46.530Z,3.03
2023-10-19T06:13:20.741Z,3.60
2023-10-19T06:15:58.166Z,4.38
2023-10-19T06:18:45.015Z,4.30
2023-10-19T06:21:16.736Z,3.20
2023-10-19T06:23:49.812Z,3.40
2023-10-19T06:26:24.968Z,3.58
2023-10-19T06:28:59.803Z,3.20
2023-10-19T06:31:37.152Z,3.65
2023-10-19T06:34:20.282Z,3.60
2023-10-19T06:36:53.847Z,3.15
2023-10-19T06:39:25.631Z,3.60
2023-10-19T06:41:56.802Z,4.07
2023-10-19T06:44:54.718Z,4.00
2023-10-19T06:47:28.074Z,3.30
2023-10-19T06:50:04.017Z,3.20
2023-10-19T06:52:34.858Z,2.53
2023-10-19T06:55:06.110Z,2.80
2023-10-19T06:57:36.797Z,2.50
2023-10-19T07:00:15.413Z,2.17
2023-10-19T07:02:47.401Z,3.38
2023-10-19T07:05:23.451Z,2.95
2023-10-19T07:07:57.845Z,3.15
2023-10-19T07:13:00.926Z,2.17
2023-10-19T07:15:31.868Z,3.20
2023-10-19T07:18:02.653Z,1.90
2023-10-19T07:20:37.287Z,3.30
2023-10-19T07:23:11.545Z,3.85
2023-10-19T07:25:44.817Z,2.95
2023-10-19T07:28:16.563Z,2.90
2023-10-19T07:30:48.337Z,2.28
2023-10-19T07:33:21.197Z,2.50
2023-10-19T07:35:56.112Z,1.65
2023-10-19T07:38:29.834Z,1.92
2023-10-19T07:41:00.595Z,2.67
2023-10-19T07:43:31.642Z,2.92
2023-10-19T07:46:02.793Z,3.20
2023-10-19T07:48:33.932Z,2.35
2023-10-19T07:51:07.334Z,2.55
2023-10-19T07:53:38.055Z,2.30
2023-10-19T07:56:09.620Z,2.00
2023-10-19T07:58:42.974Z,2.20
2023-10-19T08:01:13.765Z,2.22
2023-10-19T08:03:44.548Z,2.72
2023-10-19T08:06:18.064Z,2.45
2023-10-19T08:08:48.688Z,2.13
2023-10-19T08:11:19.472Z,2.28
2023-10-19T08:13:50.724Z,3.15
2023-10-19T08:16:21.830Z,2.80
2023-10-19T08:18:55.910Z,2.83
2023-10-19T08:21:30.262Z,2.13
2023-10-19T08:24:00.931Z,2.60
2023-10-19T08:26:31.795Z,2.10
2023-10-19T08:29:03.012Z,2.53
2023-10-19T08:31:34.073Z,1.98
2023-10-19T08:34:04.781Z,2.67
2023-10-19T08:36:38.693Z,2.00
2023-10-19T08:39:09.989Z,2.88
2023-10-19T08:41:42.354Z,1.83
2023-10-19T08:44:16.870Z,2.20
2023-10-19T08:46:49.294Z,2.13
2023-10-19T08:49:20.965Z,2.22
2023-10-19T08:51:56.036Z,3.17
2023-10-19T08:54:27.208Z,2.00
2023-10-19T08:57:00.928Z,2.35
2023-10-19T08:59:32.468Z,2.28
2023-10-19T09:02:08.215Z,2.70
2023-10-19T09:04:46.190Z,2.58
2023-10-19T09:07:21.634Z,2.85
2023-10-19T09:10:01.967Z,2.65
2023-10-19T09:12:35.883Z,2.40
2023-10-19T09:15:09.055Z,3.05
2023-10-19T09:17:41.377Z,2.28
2023-10-19T09:20:15.003Z,2.78
2023-10-19T09:22:49.694Z,3.05
2023-10-19T09:25:20.595Z,3.67
2023-10-19T09:27:51.471Z,2.58
2023-10-19T09:30:27.156Z,2.25
2023-10-19T09:32:59.344Z,2.85
2023-10-19T09:35:32.816Z,3.12
2023-10-19T09:38:07.702Z,2.78
2023-10-19T09:40:39.536Z,2.40
2023-10-19T09:43:16.351Z,2.22
2023-10-19T09:45:55.503Z,2.15
2023-10-19T09:48:26.543Z,1.63
2023-10-19T09:51:02.186Z,2.53
2023-10-19T09:53:35.991Z,1.95
2023-10-19T09:56:12.392Z,2.80
2023-10-19T09:58:50.473Z,2.97
2023-10-19T10:01:23.393Z,2.38
2023-10-19T10:03:55.813Z,2.47
2023-10-19T10:07:05.462Z,1.85
2023-10-19T10:09:45.206Z,1.80
2023-10-19T10:12:30.682Z,2.78
2023-10-19T10:15:04.510Z,2.10
2023-10-19T10:17:39.014Z,2.17
2023-10-19T10:20:35.599Z,1.90
2023-10-19T10:23:33.975Z,2.60
2023-10-19T10:26:09.525Z,2.72
2023-10-19T10:28:40.578Z,3.63
2023-10-19T10:31:18.893Z,2.55
2023-10-19T10:33:52.684Z,2.15
2023-10-19T10:36:23.865Z,2.33
2023-10-19T10:38:55.906Z,2.28
2023-10-19T10:41:30.424Z,1.88
2023-10-19T10:44:02.654Z,2.30
2023-10-19T10:46:33.571Z,1.95
2023-10-19T10:49:04.753Z,1.98
2023-10-19T10:51:36.489Z,2.33
2023-10-19T10:54:10.778Z,2.55
2023-10-19T10:56:46.703Z,1.67
2023-10-19T10:59:18.968Z,1.58
2023-10-19T11:01:50.240Z,2.33
2023-10-19T11:04:21.030Z,1.70
2023-10-19T11:06:54.000Z,1.80
2023-10-19T11:09:26.046Z,2.17
2023-10-19T11:12:01.550Z,2.50
2023-10-19T11:14:32.678Z,3.88
2023-10-19T11:17:16.816Z,2.75
2023-10-19T11:19:47.700Z,2.17
2023-10-19T11:22:18.907Z,1.98
2023-10-19T11:24:52.057Z,1.95
2023-10-19T11:27:34.548Z,2.47
2023-10-19T11:30:06.388Z,3.00
2023-10-19T11:32:42.118Z,2.55
2023-10-19T11:35:13.979Z,2.78
2023-10-19T11:37:51.954Z,3.35
2023-10-19T11:40:23.616Z,2.60
2023-10-19T11:42:57.826Z,2.58
2023-10-19T11:48:01.285Z,1.80
2023-10-19T11:50:32.076Z,2.15
2023-10-19T11:53:02.929Z,1.95
2023-10-19T11:55:54.826Z,2.25
2023-10-19T11:58:28.166Z,2.00
2023-10-19T12:01:09.956Z,2.53
2023-10-19T12:03:41.971Z,1.98
2023-10-19T12:06:14.957Z,1.80
2023-10-19T12:08:45.728Z,2.70
2023-10-19T12:11:21.182Z,1.92
2023-10-19T12:13:55.629Z,2.10
2023-10-19T12:16:26.317Z,2.75
2023-10-19T12:18:57.007Z,2.97
2023-10-19T12:21:32.098Z,2.95
2023-10-19T12:24:02.808Z,2.58
2023-10-19T12:26:33.622Z,2.80
2023-10-19T12:29:10.943Z,2.92
2023-10-19T12:31:43.369Z,4.28
2023-10-19T12:34:18.111Z,4.43
2023-10-19T12:36:51.149Z,2.50
2023-10-19T12:39:34.281Z,5.55
2023-10-19T12:42:05.617Z,5.90
2023-10-19T12:44:45.037Z,7.47
2023-10-19T12:47:23.151Z,6.53
2023-10-19T12:49:56.725Z,4.82
2023-10-19T12:52:31.201Z,3.95
2023-10-19T12:55:06.676Z,5.07
2023-10-19T12:57:38.396Z,4.32
2023-10-19T13:00:27.304Z,4.78
2023-10-19T13:03:01.380Z,5.00
2023-10-19T13:05:36.353Z,4.00
2023-10-19T13:08:21.117Z,4.53
2023-10-19T13:10:53.609Z,6.13
2023-10-19T13:13:30.810Z,6.90
2023-10-19T13:16:06.927Z,3.88
2023-10-19T13:18:37.945Z,3.20
2023-10-19T13:21:12.688Z,5.50
2023-10-19T13:23:44.592Z,5.30
2023-10-19T13:26:24.663Z,6.65
2023-10-19T13:28:57.016Z,5.30
2023-10-19T13:31:31.402Z,5.63
2023-10-19T13:34:04.627Z,4.45
2023-10-19T13:36:35.532Z,5.38
2023-10-19T13:39:07.694Z,4.95
2023-10-19T13:41:38.448Z,4.18
2023-10-19T13:44:09.688Z,5.95
2023-10-19T13:46:44.099Z,5.25
2023-10-19T13:49:20.162Z,4.18
2023-10-19T13:51:50.996Z,4.80
2023-10-19T13:54:22.111Z,5.50
2023-10-19T13:56:54.090Z,4.90
2023-10-19T13:59:25.133Z,6.25
2023-10-19T14:02:00.552Z,6.32
2023-10-19T14:04:31.408Z,7.07
2023-10-19T14:07:02.328Z,5.85
2023-10-19T14:09:33.081Z,7.70
2023-10-19T14:12:05.664Z,8.18
2023-10-19T14:14:36.326Z,8.98
2023-10-19T14:17:10.671Z,5.35
2023-10-19T14:22:17.369Z,3.05
2023-10-19T14:24:48.634Z,3.47
2023-10-19T14:27:19.232Z,5.90
2023-10-19T14:29:51.525Z,7.47
2023-10-19T14:32:28.415Z,8.82
2023-10-19T14:34:59.068Z,4.75
2023-10-19T14:37:29.709Z,6.57
2023-10-19T14:40:00.325Z,4.60
2023-10-19T14:42:34.341Z,4.68
2023-10-19T14:45:05.555Z,3.80
2023-10-19T14:47:39.135Z,6.30
2023-10-19T14:50:20.896Z,5.45
2023-10-19T14:52:52.955Z,5.45
2023-10-19T14:55:24.331Z,6.82
2023-10-19T14:57:57.050Z,6.55
2023-10-19T15:00:35.118Z,7.00
2023-10-19T15:03:11.264Z,6.22
2023-10-19T15:05:43.359Z,7.18
2023-10-19T15:08:14.761Z,9.85
2023-10-19T15:10:46.181Z,7.90
2023-10-19T15:13:16.838Z,9.90
2023-10-19T15:15:51.328Z,6.25
2023-10-19T15:18:24.614Z,5.82
2023-10-19T15:20:56.139Z,6.57
2023-10-19T15:23:34.868Z,5.82
2023-10-19T15:26:06.199Z,6.50
2023-10-19T15:28:37.345Z,6.72
2023-10-19T15:31:10.227Z,7.53
2023-10-19T15:33:44.127Z,7.25
2023-10-19T15:36:15.709Z,8.77
2023-10-19T15:38:50.677Z,14.82
2023-10-19T15:41:22.445Z,7.35
2023-10-19T15:43:55.267Z,7.63
2023-10-19T15:46:28.574Z,8.60
2023-10-19T15:49:01.965Z,12.20
2023-10-19T15:51:34.451Z,12.73
2023-10-19T15:54:12.312Z,10.85
2023-10-19T15:56:43.245Z,9.82
2023-10-19T15:59:14.060Z,9.27
2023-10-19T16:01:45.424Z,10.63
2023-10-19T16:04:22.665Z,9.50
2023-10-19T16:06:53.387Z,14.00
2023-10-19T16:09:23.958Z,10.18
2023-10-19T16:11:54.680Z,10.07
2023-10-19T16:14:25.356Z,10.93
2023-10-19T16:16:56.087Z,9.20
2023-10-19T16:19:29.602Z,11.02
2023-10-19T16:22:00.383Z,11.77
2023-10-19T16:24:31.163Z,9.25
2023-10-19T16:27:03.486Z,8.48
2023-10-19T16:29:34.095Z,9.55
2023-10-19T16:32:05.395Z,12.25
2023-10-19T16:34:38.824Z,11.20
2023-10-19T16:37:09.816Z,9.43
2023-10-19T16:39:40.763Z,9.23
2023-10-19T16:42:12.038Z,14.88
2023-10-19T16:44:42.916Z,10.57
2023-10-19T16:47:13.932Z,8.80
2023-10-19T16:49:47.225Z,9.45
2023-10-19T16:52:17.942Z,9.97
2023-10-19T16:54:48.509Z,11.40
2023-10-19T16:57:19.134Z,7.68
2023-10-19T16:59:51.685Z,8.50
2023-10-19T17:02:22.407Z,10.40
2023-10-19T17:04:56.079Z,8.98
2023-10-19T17:07:26.896Z,9.65
2023-10-19T17:09:57.500Z,9.93
2023-10-19T17:12:29.414Z,12.57
2023-10-19T17:14:59.973Z,10.13
2023-10-19T17:17:30.863Z,10.32
2023-10-19T17:20:04.360Z,12.52
2023-10-19T17:22:35.282Z,9.45
2023-10-19T17:25:07.542Z,8.32
2023-10-19T17:27:38.226Z,5.80
2023-10-19T17:30:10.492Z,7.45
2023-10-19T17:32:41.450Z,12.13
2023-10-19T17:35:16.547Z,11.45
2023-10-19T17:37:47.315Z,14.20
2023-10-19T17:40:18.028Z,12.98
2023-10-19T17:42:48.892Z,13.35
2023-10-19T17:45:19.636Z,13.63
2023-10-19T17:47:51.570Z,12.05
2023-10-19T17:50:25.055Z,11.77
2023-10-19T17:52:55.977Z,14.53
2023-10-19T17:55:26.798Z,14.77
2023-10-19T17:57:57.523Z,12.43
2023-10-19T18:00:31.322Z,16.42
2023-10-19T18:03:02.233Z,11.40
2023-10-19T18:05:35.604Z,9.20
2023-10-19T18:08:06.669Z,6.93
2023-10-19T18:10:37.943Z,8.07
2023-10-19T18:13:09.161Z,14.82
2023-10-19T18:15:40.580Z,11.23
2023-10-19T18:18:12.230Z,9.23
2023-10-19T18:20:45.516Z,15.70
2023-10-19T18:23:16.420Z,9.85
2023-10-19T18:25:48.749Z,7.03
2023-10-19T18:28:19.423Z,10.93
2023-10-19T18:31:06.281Z,9.32
2023-10-19T18:33:40.408Z,7.90
2023-10-19T18:36:21.586Z,11.30
2023-10-19T18:38:52.111Z,6.63
2023-10-19T18:41:33.379Z,7.95
2023-10-19T18:44:06.047Z,10.95
2023-10-19T18:46:36.775Z,9.30
2023-10-19T18:49:18.439Z,9.38
2023-10-19T18:51:56.554Z,9.80
2023-10-19T18:54:39.713Z,9.57
2023-10-19T18:57:13.190Z,10.52
2023-10-19T18:59:43.970Z,10.18
2023-10-19T19:02:16.840Z,10.30
2023-10-19T19:04:50.890Z,5.88
2023-10-19T19:07:31.353Z,10.77
2023-10-19T19:10:01.858Z,10.98
2023-10-19T19:12:38.456Z,6.88
2023-10-19T19:15:12.429Z,7.75
2023-10-19T19:17:56.091Z,8.35
2023-10-19T19:20:26.924Z,8.02
2023-10-19T19:23:00.074Z,9.57
2023-10-19T19:25:30.808Z,10.10
2023-10-19T19:28:01.585Z,8.65
2023-10-19T19:30:32.582Z,8.65
2023-10-19T19:33:03.505Z,11.95
2023-10-19T19:35:34.091Z,11.13
2023-10-19T19:38:08.746Z,7.00
2023-10-19T19:40:41.472Z,7.75
2023-10-19T19:43:14.313Z,8.45
2023-10-19T19:45:44.975Z,7.82
2023-10-19T19:48:18.646Z,9.43
2023-10-19T19:50:49.326Z,8.60
2023-10-19T19:53:22.657Z,6.07
2023-10-19T19:56:02.658Z,5.43
2023-10-19T19:58:36.848Z,10.88
2023-10-19T20:01:08.057Z,7.15
2023-10-19T20:03:38.749Z,7.28
2023-10-19T20:06:11.142Z,6.72
2023-10-19T20:08:44.348Z,6.93
2023-10-19T20:11:22.175Z,7.22
2023-10-19T20:13:52.879Z,7.68
2023-10-19T20:16:23.456Z,5.35
2023-10-19T20:18:54.142Z,6.72
2023-10-19T20:21:28.521Z,6.95
2023-10-19T20:26:35.992Z,6.30
2023-10-19T20:29:07.572Z,7.50
2023-10-19T20:31:48.633Z,7.07
2023-10-19T20:34:21.286Z,6.97
2023-10-19T20:36:51.952Z,7.30
2023-10-19T20:39:26.949Z,4.70
2023-10-19T20:42:15.531Z,5.40
2023-10-19T20:44:45.996Z,4.40
2023-10-19T20:47:18.781Z,7.90
2023-10-19T20:49:49.606Z,7.22
2023-10-19T20:52:20.518Z,7.95
2023-10-19T20:54:53.840Z,4.82
2023-10-19T20:57:36.472Z,6.73
2023-10-19T21:00:13.207Z,5.38
2023-10-19T21:02:46.339Z,5.82
2023-10-19T21:05:20.551Z,5.90
2023-10-19T21:07:53.752Z,4.20
2023-10-19T21:10:27.093Z,5.78
2023-10-19T21:12:57.723Z,3.57
2023-10-19T21:15:30.493Z,3.85
2023-10-19T21:18:01.236Z,5.18
2023-10-19T21:20:32.479Z,4.18
2023-10-19T21:23:03.086Z,3.85
2023-10-19T21:25:36.956Z,4.32
2023-10-19T21:28:08.243Z,4.80
2023-10-19T21:30:46.631Z,3.60
2023-10-19T21:33:17.450Z,5.28
2023-10-19T21:35:48.268Z,6.32
2023-10-19T21:38:19.006Z,6.30
2023-10-19T21:40:52.187Z,5.80
2023-10-19T21:43:22.844Z,6.28
2023-10-19T21:45:54.546Z,4.40
2023-10-19T21:48:25.215Z,3.92
2023-10-19T21:51:00.490Z,6.38
2023-10-19T21:53:31.331Z,2.92
2023-10-19T21:56:04.749Z,4.85
2023-10-19T21:58:36.607Z,3.20
2023-10-19T22:01:08.944Z,4.25
2023-10-19T22:03:43.487Z,2.92
2023-10-19T22:06:15.651Z,5.35
2023-10-19T22:08:46.790Z,4.97
2023-10-19T22:11:20.128Z,5.40
2023-10-19T22:13:52.797Z,5.63
2023-10-19T22:16:23.551Z,4.32
2023-10-19T22:18:54.887Z,5.75
2023-10-19T22:21:25.725Z,6.82
2023-10-19T22:23:56.695Z,5.93
2023-10-19T22:26:32.557Z,6.80
2023-10-19T22:29:03.666Z,5.75
2023-10-19T22:31:34.338Z,6.80
2023-10-19T22:34:05.249Z,6.65
2023-10-19T22:36:36.059Z,5.22
2023-10-19T22:39:06.946Z,3.78
2023-10-19T22:41:42.996Z,3.55
2023-10-19T22:44:15.154Z,5.75
2023-10-19T22:46:47.319Z,5.28
2023-10-19T22:49:17.908Z,7.35
2023-10-19T22:51:48.541Z,7.00
2023-10-19T22:54:19.354Z,6.03
2023-10-19T22:56:52.912Z,5.13
2023-10-19T22:59:24.281Z,5.72
2023-10-19T23:01:55.693Z,4.78
2023-10-19T23:04:29.909Z,6.55
2023-10-19T23:07:02.276Z,5.45
2023-10-19T23:09:33.528Z,6.55
2023-10-19T23:12:09.692Z,5.95
2023-10-19T23:14:45.984Z,6.68
2023-10-19T23:17:18.316Z,7.65
2023-10-19T23:19:53.959Z,6.43
2023-10-19T23:22:25.530Z,4.93
2023-10-19T23:24:57.415Z,5.68
2023-10-19T23:27:32.463Z,5.40
2023-10-19T23:30:03.400Z,4.72
2023-10-19T23:32:34.325Z,5.32
2023-10-19T23:35:05.219Z,6.63
2023-10-19T23:37:36.409Z,6.53
2023-10-19T23:40:09.083Z,5.45
2023-10-19T23:42:42.206Z,6.50
2023-10-19T23:45:15.966Z,6.70
2023-10-19T23:47:46.703Z,7.25
2023-10-19T23:50:17.408Z,7.00
2023-10-19T23:52:48.089Z,8.70
2023-10-19T23:55:18.959Z,6.93
2023-10-19T23:57:52.253Z,8.68
